Time;durP1;ratioP1;P1;durP2;ratioP2;P2;SDS_P1;SDS_P2;PMS_P1;PMS_P2;Temp;Humidity;BMP_temperature;BMP_pressure;BME280_temperature;BME280_humidity;BME280_pressure;Samples;Min_cycle;Max_cycle;Signal;HPM_P1;HPM_P2
2021/12/17 00:01:44;;;;;;;0.22;0.22;;;8.40;99.90;;;;;;5071929;28;20049;-81
2021/12/17 00:04:24;;;;;;;0.68;0.68;;;8.40;99.90;;;;;;5071724;28;20048;-81
2021/12/17 00:06:50;;;;;;;0.17;0.00;;;8.40;99.90;;;;;;5055796;28;20507;-81
2021/12/17 00:09:16;;;;;;;0.22;0.22;;;8.40;99.90;;;;;;5055526;28;20084;-81
2021/12/17 00:11:44;;;;;;;0.55;0.55;;;8.30;99.90;;;;;;5071925;28;20135;-81
2021/12/17 00:14:13;;;;;;;0.00;0.00;;;8.40;99.90;;;;;;5072077;28;20427;-81
2021/12/17 00:16:40;;;;;;;0.15;0.08;;;8.40;99.90;;;;;;5071944;28;20458;-81
2021/12/17 00:19:20;;;;;;;0.10;0.10;;;8.40;99.90;;;;;;5074053;28;20045;-80
2021/12/17 00:48:57;;;;;;;0.00;0.00;;;8.40;99.90;;;;;;5075607;28;20045;-81
2021/12/17 00:53:53;;;;;;;0.00;0.00;;;8.40;99.90;;;;;;5075171;28;20460;-81
2021/12/17 00:56:19;;;;;;;0.10;0.10;;;8.40;99.90;;;;;;5074983;28;20435;-81
2021/12/17 00:58:45;;;;;;;0.28;0.28;;;8.40;99.90;;;;;;5058213;28;20105;-81
2021/12/17 01:01:11;;;;;;;0.00;0.00;;;8.40;99.90;;;;;;5058570;28;20044;-81
2021/12/17 01:03:37;;;;;;;0.32;0.25;;;8.50;99.90;;;;;;5057997;28;20455;-81
2021/12/17 01:06:03;;;;;;;0.30;0.30;;;8.40;99.90;;;;;;5074772;28;20122;-81
2021/12/17 01:08:29;;;;;;;0.20;0.17;;;8.40;99.90;;;;;;5074631;28;20097;-80
2021/12/17 01:10:56;;;;;;;0.10;0.10;;;8.40;99.90;;;;;;5058086;28;20048;-80
2021/12/17 01:13:23;;;;;;;0.08;0.00;;;8.50;99.90;;;;;;5058025;28;20051;-81
2021/12/17 01:15:49;;;;;;;0.00;0.00;;;8.40;99.90;;;;;;5058022;28;20492;-80
2021/12/17 01:18:18;;;;;;;0.10;0.00;;;8.40;99.90;;;;;;5075236;28;20047;-80
2021/12/17 01:37:04;;;;;;;1.00;0.37;;;8.40;99.90;;;;;;5074732;28;20052;-81
2021/12/17 01:42:28;;;;;;;0.08;0.00;;;8.50;99.90;;;;;;5036459;28;20053;-81
2021/12/17 01:44:54;;;;;;;0.08;0.08;;;8.50;99.90;;;;;;5019189;28;20053;-81
2021/12/17 01:47:19;;;;;;;0.70;0.35;;;8.40;99.90;;;;;;5036526;28;20144;-81
2021/12/17 02:00:43;;;;;;;0.38;0.38;;;8.40;99.90;;;;;;5036513;28;20056;-81
2021/12/17 02:03:10;;;;;;;3.72;0.20;;;8.30;99.90;;;;;;5019944;28;20106;-81
2021/12/17 02:05:37;;;;;;;0.00;0.00;;;8.40;99.90;;;;;;5019986;28;20072;-81
2021/12/17 02:08:03;;;;;;;0.20;0.20;;;8.40;99.90;;;;;;5036077;28;20084;-81
2021/12/17 02:30:02;;;;;;;1.23;0.52;;;8.40;99.90;;;;;;5055754;28;20079;-80
2021/12/17 02:32:31;;;;;;;0.90;0.25;;;8.40;99.90;;;;;;5039201;28;20055;-80
2021/12/17 02:35:21;;;;;;;0.00;0.00;;;8.40;99.90;;;;;;5039184;28;20052;-81
2021/12/17 02:37:48;;;;;;;0.00;0.00;;;8.40;99.90;;;;;;5055690;28;20059;-81
2021/12/17 02:45:46;;;;;;;1.25;0.10;;;8.40;99.90;;;;;;5055098;28;20056;-81
2021/12/17 02:48:15;;;;;;;0.20;0.20;;;8.40;99.90;;;;;;5039036;28;20048;-81
2021/12/17 02:50:51;;;;;;;0.00;0.00;;;8.50;99.90;;;;;;5038974;28;20044;-81
2021/12/17 02:53:19;;;;;;;0.10;0.10;;;8.40;99.90;;;;;;5038810;28;20052;-81
2021/12/17 02:55:49;;;;;;;1.25;0.35;;;8.40;99.90;;;;;;5038781;28;20495;-81
2021/12/17 02:58:15;;;;;;;0.00;0.00;;;8.40;99.90;;;;;;5055255;28;20045;-81
2021/12/17 03:00:43;;;;;;;1.55;0.10;;;8.40;99.90;;;;;;5058808;28;20053;-81
2021/12/17 03:03:09;;;;;;;0.00;0.00;;;8.40;99.90;;;;;;5056244;28;20053;-81
2021/12/17 03:05:39;;;;;;;1.08;0.00;;;8.40;99.90;;;;;;5072925;28;20084;-81
2021/12/17 03:08:12;;;;;;;0.38;0.38;;;8.40;99.90;;;;;;5055801;28;20099;-81
2021/12/17 03:10:38;;;;;;;0.20;0.20;;;8.40;99.90;;;;;;5056138;28;20123;-80
2021/12/17 03:13:04;;;;;;;0.10;0.10;;;8.40;99.90;;;;;;5073031;28;20041;-81
2021/12/17 03:23:43;;;;;;;0.00;0.00;;;8.30;99.90;;;;;;5072733;28;20385;-81
2021/12/17 03:26:18;;;;;;;0.10;0.10;;;8.40;99.90;;;;;;5056312;28;20048;-81
2021/12/17 03:28:45;;;;;;;;;;;8.40;99.90;;;;;;5056245;28;20047;-81
2021/12/17 03:31:12;;;;;;;0.00;0.00;;;8.40;99.90;;;;;;5055763;28;19974;-81
2021/12/17 03:33:42;;;;;;;0.10;0.10;;;8.40;99.90;;;;;;5072490;28;20142;-81
2021/12/17 03:36:14;;;;;;;0.00;0.00;;;8.40;99.90;;;;;;5072688;28;20045;-81
2021/12/17 03:38:41;;;;;;;0.00;0.00;;;8.40;99.90;;;;;;5055726;28;20048;-81
2021/12/17 03:43:36;;;;;;;0.13;0.13;;;8.20;99.90;;;;;;5072119;28;20483;-81
2021/12/17 03:46:02;;;;;;;0.00;0.00;;;8.30;99.90;;;;;;5072178;28;20139;-81
2021/12/17 03:48:30;;;;;;;0.00;0.00;;;8.40;99.90;;;;;;5056193;28;20098;-80
2021/12/17 03:50:56;;;;;;;0.00;0.00;;;8.40;99.90;;;;;;5072393;28;20086;-81
2021/12/17 03:53:22;;;;;;;0.00;0.00;;;8.30;99.90;;;;;;5058650;28;20052;-81
2021/12/17 03:55:47;;;;;;;0.00;0.00;;;8.30;99.90;;;;;;5076347;28;20408;-81
2021/12/17 03:58:13;;;;;;;0.08;0.08;;;8.30;99.90;;;;;;5059844;28;20499;-80
2021/12/17 04:00:39;;;;;;;0.00;0.00;;;8.30;99.90;;;;;;5076631;28;20068;-81
2021/12/17 04:03:05;;;;;;;0.10;0.10;;;8.40;99.90;;;;;;5075797;28;20443;-81
2021/12/17 04:05:30;;;;;;;0.00;0.00;;;8.30;99.90;;;;;;5076098;28;20055;-80
2021/12/17 04:07:56;;;;;;;0.00;0.00;;;8.40;99.90;;;;;;5059298;28;20468;-80
2021/12/17 04:10:24;;;;;;;0.00;0.00;;;8.40;99.90;;;;;;5058533;28;20098;-80
2021/12/17 04:15:16;;;;;;;0.17;0.17;;;8.40;99.90;;;;;;5076518;28;20135;-80
2021/12/17 04:17:46;;;;;;;0.00;0.00;;;8.40;99.90;;;;;;5076276;28;20387;-80
2021/12/17 04:20:12;;;;;;;0.00;0.00;;;8.30;99.90;;;;;;5059106;28;20050;-81
2021/12/17 04:22:38;;;;;;;0.00;0.00;;;8.40;99.90;;;;;;5058794;28;20048;-81
2021/12/17 04:25:05;;;;;;;0.00;0.00;;;8.40;99.90;;;;;;5058605;28;20052;-81
2021/12/17 04:27:30;;;;;;;0.00;0.00;;;8.30;99.90;;;;;;5075469;28;20051;-81
2021/12/17 04:29:57;;;;;;;0.32;0.10;;;8.30;99.90;;;;;;5075451;28;20391;-81
2021/12/17 04:32:23;;;;;;;0.10;0.10;;;8.40;99.90;;;;;;5058547;28;20045;-81
2021/12/17 04:34:49;;;;;;;0.00;0.00;;;8.30;99.90;;;;;;5058607;28;20053;-81
2021/12/17 04:37:15;;;;;;;0.00;0.00;;;8.30;99.90;;;;;;5075140;28;20412;-81
2021/12/17 04:39:40;;;;;;;0.00;0.00;;;8.30;99.90;;;;;;5075752;28;20040;-81
2021/12/17 04:42:15;;;;;;;0.20;0.20;;;8.30;99.90;;;;;;5075414;28;20127;-81
2021/12/17 04:44:49;;;;;;;;;;;8.30;99.90;;;;;;5058283;28;20057;-81
2021/12/17 04:57:49;;;;;;;0.05;0.05;;;8.40;99.90;;;;;;5074983;28;20102;-81
2021/12/17 05:00:19;;;;;;;0.00;0.00;;;8.40;99.90;;;;;;5074727;28;20143;-81
2021/12/17 05:02:49;;;;;;;0.00;0.00;;;8.40;99.90;;;;;;5057874;28;20169;-81
2021/12/17 05:05:17;;;;;;;0.00;0.00;;;8.40;99.90;;;;;;5057212;28;20056;-81
2021/12/17 05:07:50;;;;;;;0.52;0.45;;;8.30;99.90;;;;;;5058409;28;20051;-81
2021/12/17 05:21:00;;;;;;;0.00;0.00;;;8.20;99.90;;;;;;5075180;28;20044;-81
2021/12/17 05:23:33;;;;;;;0.00;0.00;;;8.30;99.90;;;;;;5074472;28;20094;-81
2021/12/17 05:26:08;;;;;;;0.25;0.00;;;8.20;99.90;;;;;;5058724;28;20052;-82
2021/12/17 05:28:34;;;;;;;;;;;8.30;99.90;;;;;;5076022;28;20054;-82
2021/12/17 05:30:59;;;;;;;0.08;0.08;;;8.30;99.90;;;;;;5058333;28;20359;-82
2021/12/17 05:33:26;;;;;;;0.10;0.10;;;8.30;99.90;;;;;;5057861;28;20044;-81
2021/12/17 05:35:52;;;;;;;0.10;0.10;;;8.20;99.90;;;;;;5074662;28;20089;-82
2021/12/17 05:38:20;;;;;;;0.10;0.10;;;8.30;99.90;;;;;;5074659;28;20049;-82
2021/12/17 05:40:46;;;;;;;0.00;0.00;;;8.30;99.90;;;;;;5057912;28;20068;-82
2021/12/17 05:43:14;;;;;;;0.00;0.00;;;8.30;99.90;;;;;;5074349;28;20094;-82
2021/12/17 05:48:26;;;;;;;0.00;0.00;;;8.30;99.90;;;;;;5074578;28;20205;-80
2021/12/17 05:50:55;;;;;;;0.00;0.00;;;8.30;99.90;;;;;;5058790;28;20045;-81
2021/12/17 05:53:22;;;;;;;0.00;0.00;;;8.20;99.90;;;;;;5058058;28;20048;-81
2021/12/17 05:55:48;;;;;;;0.52;0.20;;;8.30;99.90;;;;;;5058117;28;20048;-80
2021/12/17 05:58:14;;;;;;;0.20;0.20;;;8.20;99.90;;;;;;5058114;28;20060;-81
2021/12/17 06:00:41;;;;;;;0.00;0.00;;;8.20;99.90;;;;;;5057666;28;20049;-81
2021/12/17 06:03:08;;;;;;;0.22;0.22;;;8.20;99.90;;;;;;5057569;28;20041;-81
2021/12/17 06:05:34;;;;;;;0.00;0.00;;;8.20;99.90;;;;;;5057575;28;20087;-81
2021/12/17 06:08:00;;;;;;;0.00;0.00;;;8.20;99.90;;;;;;5074153;28;20048;-80
2021/12/17 06:10:27;;;;;;;0.00;0.00;;;8.20;99.90;;;;;;5074073;28;20044;-81
2021/12/17 06:12:52;;;;;;;0.05;0.05;;;8.30;99.90;;;;;;5057421;28;20037;-81
2021/12/17 06:15:20;;;;;;;0.00;0.00;;;8.20;99.90;;;;;;5057419;28;20056;-81
2021/12/17 06:17:46;;;;;;;0.00;0.00;;;8.20;99.90;;;;;;5057944;28;20403;-81
2021/12/17 06:20:15;;;;;;;0.30;0.00;;;8.20;99.90;;;;;;5073940;28;20391;-81
2021/12/17 06:22:41;;;;;;;0.00;0.00;;;8.20;99.90;;;;;;5074387;28;20079;-81
2021/12/17 06:25:08;;;;;;;0.00;0.00;;;8.20;99.90;;;;;;5073759;28;20127;-81
2021/12/17 06:27:35;;;;;;;0.00;0.00;;;8.20;99.90;;;;;;5074006;28;20048;-81
2021/12/17 06:30:02;;;;;;;0.00;0.00;;;8.20;99.90;;;;;;5073718;28;20182;-81
2021/12/17 06:32:28;;;;;;;0.00;0.00;;;8.20;99.90;;;;;;5057090;28;20063;-81
2021/12/17 06:34:55;;;;;;;0.60;0.10;;;8.10;99.90;;;;;;5073568;28;20041;-81
2021/12/17 06:37:20;;;;;;;0.65;0.28;;;8.30;99.90;;;;;;5057104;28;20048;-81
2021/12/17 06:39:47;;;;;;;0.00;0.00;;;8.20;99.90;;;;;;5056797;28;20045;-81
2021/12/17 06:42:13;;;;;;;0.10;0.10;;;8.20;99.90;;;;;;5067342;28;20081;-82
2021/12/17 06:44:42;;;;;;;0.00;0.00;;;8.20;99.90;;;;;;5051993;28;20080;-82
2021/12/17 06:47:24;;;;;;;0.00;0.00;;;8.20;99.90;;;;;;5053223;28;20087;-82
2021/12/17 06:49:58;;;;;;;0.15;0.15;;;8.20;99.90;;;;;;5053796;28;20045;-82
2021/12/17 06:55:36;;;;;;;0.47;0.10;;;8.30;99.90;;;;;;5053452;28;20105;-82
2021/12/17 07:06:13;;;;;;;0.08;0.08;;;8.20;99.90;;;;;;5053578;28;20056;-82
2021/12/17 07:39:51;;;;;;;0.00;0.00;;;8.20;99.90;;;;;;5077117;28;20399;-82
2021/12/17 07:42:17;;;;;;;0.00;0.00;;;8.20;99.90;;;;;;5060506;28;20044;-82
2021/12/17 07:44:42;;;;;;;0.10;0.08;;;8.20;99.90;;;;;;5075784;28;20439;-82
2021/12/17 07:47:08;;;;;;;0.00;0.00;;;8.20;99.90;;;;;;5060097;28;20493;-82
2021/12/17 07:49:34;;;;;;;0.00;0.00;;;8.20;99.90;;;;;;5060664;28;20137;-82
2021/12/17 07:51:59;;;;;;;0.30;0.00;;;8.20;99.90;;;;;;5076348;28;20090;-82
2021/12/17 07:54:25;;;;;;;0.00;0.00;;;8.20;99.90;;;;;;5060310;28;20365;-82
2021/12/17 07:56:51;;;;;;;0.00;0.00;;;8.20;99.90;;;;;;5060415;28;20055;-82
2021/12/17 07:59:17;;;;;;;0.35;0.17;;;8.20;99.90;;;;;;5076390;28;20111;-82
2021/12/17 08:01:42;;;;;;;0.00;0.00;;;8.20;99.90;;;;;;5059785;28;20102;-83
2021/12/17 08:04:10;;;;;;;0.10;0.00;;;8.30;99.90;;;;;;5075972;28;20393;-82
2021/12/17 08:06:37;;;;;;;1.70;0.08;;;8.10;99.90;;;;;;5059617;28;20460;-82
2021/12/17 08:09:04;;;;;;;0.88;0.22;;;8.20;99.90;;;;;;5076250;28;20154;-82
2021/12/17 08:11:37;;;;;;;0.10;0.10;;;8.20;99.90;;;;;;5059266;28;20135;-83
2021/12/17 08:14:06;;;;;;;0.00;0.00;;;8.30;99.90;;;;;;5076072;28;20051;-83
2021/12/17 08:16:40;;;;;;;0.00;0.00;;;8.20;99.90;;;;;;5059475;28;20052;-82
2021/12/17 08:32:02;;;;;;;0.35;0.10;;;8.30;99.90;;;;;;5076303;28;20098;-82
2021/12/17 08:34:28;;;;;;;0.00;0.00;;;8.30;99.90;;;;;;5076296;28;20036;-82
2021/12/17 08:36:54;;;;;;;1.17;0.63;;;8.30;99.90;;;;;;5059121;28;20044;-83
2021/12/17 08:39:20;;;;;;;0.05;0.00;;;8.30;99.90;;;;;;5058042;28;20494;-81
2021/12/17 08:41:50;;;;;;;0.00;0.00;;;8.20;99.90;;;;;;5059236;28;20053;-81
2021/12/17 08:44:16;;;;;;;0.00;0.00;;;8.30;99.90;;;;;;5075849;28;20052;-81
2021/12/17 08:46:42;;;;;;;0.00;0.00;;;8.40;99.90;;;;;;5059146;28;20381;-82
2021/12/17 08:49:09;;;;;;;0.10;0.10;;;8.10;99.90;;;;;;5058850;28;20128;-81
2021/12/17 08:51:36;;;;;;;0.40;0.40;;;8.30;99.90;;;;;;5075468;28;20102;-82
2021/12/17 08:54:02;;;;;;;0.00;0.00;;;8.40;99.90;;;;;;5059246;28;20507;-81
2021/12/17 08:56:34;;;;;;;0.05;0.05;;;8.40;99.90;;;;;;5059181;28;20052;-82
2021/12/17 08:59:03;;;;;;;0.08;0.08;;;8.40;99.90;;;;;;5059411;28;20051;-81
2021/12/17 09:01:29;;;;;;;0.00;0.00;;;8.40;99.90;;;;;;5075492;28;20040;-81
2021/12/17 09:03:55;;;;;;;0.95;0.52;;;8.50;99.90;;;;;;5058334;28;20511;-82
2021/12/17 09:06:26;;;;;;;0.22;0.15;;;8.50;99.90;;;;;;5058261;28;20127;-82
2021/12/17 09:08:55;;;;;;;0.10;0.10;;;8.50;99.90;;;;;;5058424;28;20059;-81
2021/12/17 09:11:27;;;;;;;0.73;0.10;;;8.60;99.90;;;;;;5075192;28;20511;-81
2021/12/17 09:13:55;;;;;;;1.98;0.10;;;8.50;99.90;;;;;;5058623;28;20044;-82
2021/12/17 09:16:21;;;;;;;0.00;0.00;;;8.50;99.90;;;;;;5075129;28;20171;-82
2021/12/17 09:18:51;;;;;;;0.00;0.00;;;8.60;99.90;;;;;;5058110;28;20094;-82
2021/12/17 09:21:17;;;;;;;0.00;0.00;;;8.60;99.90;;;;;;5059027;28;20052;-82
2021/12/17 09:23:44;;;;;;;0.00;0.00;;;8.50;99.90;;;;;;5074747;28;20488;-82
2021/12/17 09:26:12;;;;;;;0.22;0.15;;;8.60;99.90;;;;;;5074757;28;20084;-81
2021/12/17 09:28:37;;;;;;;0.10;0.10;;;8.70;99.90;;;;;;5074750;28;20037;-81
2021/12/17 09:31:05;;;;;;;0.00;0.00;;;8.70;99.90;;;;;;5074564;28;20102;-81
2021/12/17 09:33:32;;;;;;;0.00;0.00;;;8.70;99.90;;;;;;5074587;28;20052;-81
2021/12/17 09:35:57;;;;;;;0.08;0.08;;;8.70;99.90;;;;;;5074682;28;20049;-81
2021/12/17 09:38:23;;;;;;;0.00;0.00;;;8.70;99.90;;;;;;5057956;28;20085;-82
2021/12/17 09:40:49;;;;;;;0.00;0.00;;;8.80;99.90;;;;;;5074255;28;20041;-81
2021/12/17 09:43:16;;;;;;;0.00;0.00;;;8.80;99.90;;;;;;5058262;28;20045;-81
2021/12/17 09:45:42;;;;;;;0.10;0.10;;;8.80;99.90;;;;;;5074512;28;20056;-82
2021/12/17 09:48:08;;;;;;;0.00;0.00;;;8.70;99.90;;;;;;5058403;28;20048;-81
2021/12/17 09:50:34;;;;;;;0.10;0.10;;;8.80;99.90;;;;;;5057844;28;20051;-81
2021/12/17 09:53:00;;;;;;;0.00;0.00;;;8.80;99.90;;;;;;5074667;28;20041;-81
2021/12/17 09:55:26;;;;;;;0.00;0.00;;;8.80;99.90;;;;;;5058042;28;20044;-81
2021/12/17 09:57:53;;;;;;;0.00;0.00;;;8.90;99.90;;;;;;5074794;28;20075;-81
2021/12/17 10:00:22;;;;;;;0.00;0.00;;;8.90;99.90;;;;;;5057817;28;20044;-82
2021/12/17 10:02:49;;;;;;;0.00;0.00;;;8.90;99.90;;;;;;5074575;28;20480;-81
2021/12/17 10:05:26;;;;;;;0.43;0.00;;;9.10;99.90;;;;;;5074495;28;20542;-81
2021/12/17 10:08:03;;;;;;;0.00;0.00;;;8.90;99.90;;;;;;5058146;28;20107;-81
2021/12/17 10:10:38;;;;;;;0.00;0.00;;;9.00;99.90;;;;;;5074470;28;20048;-82
2021/12/17 10:13:24;;;;;;;0.35;0.25;;;9.00;99.90;;;;;;5074335;28;20056;-82
2021/12/17 10:15:59;;;;;;;0.00;0.00;;;9.00;99.90;;;;;;5057980;28;20049;-83
2021/12/17 10:18:51;;;;;;;0.25;0.10;;;9.10;99.90;;;;;;5057530;28;20052;-83
2021/12/17 10:21:24;;;;;;;0.00;0.00;;;9.00;99.90;;;;;;5071667;28;20492;-83
2021/12/17 10:23:52;;;;;;;0.00;0.00;;;9.00;99.90;;;;;;5057181;28;20135;-82
2021/12/17 10:26:20;;;;;;;0.00;0.00;;;9.00;99.90;;;;;;5057287;28;20090;-82
2021/12/17 10:29:04;;;;;;;1.95;0.50;;;9.10;99.90;;;;;;5056867;28;20442;-82
2021/12/17 10:31:35;;;;;;;0.40;0.40;;;9.10;99.90;;;;;;5057053;28;20071;-83
2021/12/17 10:34:03;;;;;;;0.28;0.00;;;9.10;99.90;;;;;;5074197;28;20044;-81
2021/12/17 10:36:34;;;;;;;0.35;0.35;;;9.20;99.90;;;;;;5070448;28;20057;-82
2021/12/17 10:39:11;;;;;;;0.00;0.00;;;9.20;99.90;;;;;;5054193;28;20045;-81
2021/12/17 10:41:47;;;;;;;0.45;0.20;;;9.20;99.90;;;;;;5072473;28;20135;-80
2021/12/17 10:44:13;;;;;;;0.00;0.00;;;9.30;99.90;;;;;;5071807;28;20399;-81
2021/12/17 10:46:56;;;;;;;0.10;0.10;;;9.20;99.90;;;;;;5072760;28;20049;-81
2021/12/17 10:49:25;;;;;;;0.00;0.00;;;9.30;99.90;;;;;;5056517;28;20128;-81
2021/12/17 10:52:04;;;;;;;0.00;0.00;;;9.30;99.90;;;;;;5055923;28;20444;-81
2021/12/17 10:54:29;;;;;;;0.00;0.00;;;9.30;99.90;;;;;;5072261;28;20087;-82
2021/12/17 10:56:56;;;;;;;0.00;0.00;;;9.40;99.90;;;;;;5073083;28;20044;-81
2021/12/17 10:59:31;;;;;;;0.00;0.00;;;9.30;99.90;;;;;;5056471;28;20135;-81
2021/12/17 11:02:06;;;;;;;0.28;0.00;;;9.40;99.90;;;;;;5055707;28;20044;-81
2021/12/17 11:04:37;;;;;;;0.05;0.05;;;9.40;99.90;;;;;;5072572;28;20059;-81
2021/12/17 11:07:07;;;;;;;0.00;0.00;;;9.50;99.90;;;;;;5072447;28;20037;-82
2021/12/17 11:09:53;;;;;;;0.00;0.00;;;9.40;99.90;;;;;;5072815;28;20045;-82
2021/12/17 11:12:37;;;;;;;0.25;0.13;;;9.50;99.90;;;;;;5055534;28;20040;-81
2021/12/17 11:15:13;;;;;;;0.30;0.08;;;9.50;99.90;;;;;;5055805;28;20056;-81
2021/12/17 11:17:41;;;;;;;0.00;0.00;;;9.50;99.90;;;;;;5072314;28;20041;-81
2021/12/17 11:20:13;;;;;;;0.00;0.00;;;9.50;99.90;;;;;;5072330;28;20071;-81
2021/12/17 11:22:42;;;;;;;0.10;0.10;;;9.50;99.90;;;;;;5055726;28;20081;-82
2021/12/17 11:25:08;;;;;;;0.00;0.00;;;9.50;99.90;;;;;;5072417;28;20491;-81
2021/12/17 11:27:34;;;;;;;0.00;0.00;;;9.50;99.90;;;;;;5072601;28;20040;-82
2021/12/17 11:30:01;;;;;;;4.57;0.20;;;9.50;99.90;;;;;;5055406;28;20460;-82
2021/12/17 11:32:28;;;;;;;0.20;0.00;;;9.50;99.90;;;;;;5072655;28;20127;-81
2021/12/17 11:34:54;;;;;;;0.00;0.00;;;9.60;99.90;;;;;;5056083;28;20041;-82
2021/12/17 11:37:20;;;;;;;0.15;0.15;;;9.60;99.90;;;;;;5071995;28;20045;-82
2021/12/17 11:39:56;;;;;;;0.00;0.00;;;9.50;99.90;;;;;;5055723;28;20052;-81
2021/12/17 11:42:59;;;;;;;0.13;0.10;;;9.50;99.90;;;;;;5072094;28;20132;-81
2021/12/17 11:45:26;;;;;;;0.00;0.00;;;9.50;99.90;;;;;;5055119;28;20407;-81
2021/12/17 11:47:54;;;;;;;0.00;0.00;;;9.60;99.90;;;;;;5072471;28;20139;-82
2021/12/17 11:50:21;;;;;;;1.27;0.30;;;9.60;99.90;;;;;;5072416;28;20049;-81
2021/12/17 11:52:52;;;;;;;0.00;0.00;;;9.60;99.90;;;;;;5055342;28;20048;-81
2021/12/17 11:55:21;;;;;;;0.00;0.00;;;9.60;99.90;;;;;;5055671;28;20106;-82
2021/12/17 11:57:52;;;;;;;0.20;0.20;;;9.50;99.90;;;;;;5055525;28;20045;-80
2021/12/17 12:00:28;;;;;;;0.00;0.00;;;9.50;99.90;;;;;;5072173;28;20091;-81
2021/12/17 12:03:10;;;;;;;0.00;0.00;;;9.60;99.90;;;;;;5072507;28;20094;-81
2021/12/17 12:05:40;;;;;;;0.30;0.28;;;9.60;99.90;;;;;;5055834;28;20575;-82
2021/12/17 12:08:50;;;;;;;0.03;0.03;;;9.50;99.90;;;;;;5072346;28;20102;-82
2021/12/17 12:11:28;;;;;;;0.00;0.00;;;9.60;99.90;;;;;;5055703;28;20055;-81
2021/12/17 12:13:55;;;;;;;0.00;0.00;;;9.60;99.90;;;;;;5056908;28;20492;-81
2021/12/17 12:16:28;;;;;;;0.00;0.00;;;9.60;99.90;;;;;;5075251;28;20044;-82
2021/12/17 12:19:07;;;;;;;0.00;0.00;;;9.60;99.90;;;;;;5058889;28;20127;-81
2021/12/17 12:21:34;;;;;;;0.00;0.00;;;9.60;99.90;;;;;;5059045;28;20045;-82
2021/12/17 12:24:13;;;;;;;0.10;0.10;;;9.60;99.90;;;;;;5074448;28;20045;-82
2021/12/17 12:26:51;;;;;;;0.00;0.00;;;9.60;99.90;;;;;;5058866;28;20102;-82
2021/12/17 12:29:22;;;;;;;1.55;0.00;;;9.60;99.90;;;;;;5058563;28;20044;-82
2021/12/17 12:32:13;;;;;;;0.00;0.00;;;9.60;99.90;;;;;;5058471;28;20522;-82
2021/12/17 12:34:41;;;;;;;0.93;0.28;;;9.60;99.90;;;;;;5074659;28;20053;-82
2021/12/17 12:37:21;;;;;;;0.00;0.00;;;9.60;99.90;;;;;;5055858;28;20468;-83
2021/12/17 12:39:48;;;;;;;0.00;0.00;;;9.60;99.90;;;;;;5055610;28;20136;-82
2021/12/17 12:42:21;;;;;;;0.00;0.00;;;9.60;99.90;;;;;;5038528;28;20098;-82
2021/12/17 12:44:47;;;;;;;0.35;0.32;;;9.60;99.90;;;;;;5054768;28;20056;-83
2021/12/17 12:47:41;;;;;;;0.00;0.00;;;9.60;99.90;;;;;;5038537;28;20056;-82
2021/12/17 12:50:11;;;;;;;0.00;0.00;;;9.50;99.90;;;;;;5055436;28;20084;-82
2021/12/17 12:52:55;;;;;;;0.13;0.13;;;9.60;99.90;;;;;;5039070;28;20040;-82
2021/12/17 12:55:26;;;;;;;0.68;0.30;;;9.60;99.90;;;;;;5038238;28;20087;-82
2021/12/17 12:57:55;;;;;;;0.10;0.10;;;9.60;99.90;;;;;;5038328;28;20135;-82
2021/12/17 13:00:35;;;;;;;0.00;0.00;;;9.70;99.90;;;;;;5054585;28;20037;-82
2021/12/17 13:03:33;;;;;;;0.00;0.00;;;9.70;99.90;;;;;;5038063;28;20488;-81
2021/12/17 13:06:00;;;;;;;0.00;0.00;;;9.70;99.90;;;;;;4961783;28;20069;-81
2021/12/17 13:08:30;;;;;;;0.00;0.00;;;9.70;99.90;;;;;;4961604;28;20174;-81
2021/12/17 13:10:59;;;;;;;0.08;0.00;;;9.90;99.90;;;;;;4961960;28;20073;-81
2021/12/17 13:13:37;;;;;;;0.20;0.20;;;9.90;99.90;;;;;;4961802;28;20050;-81
2021/12/17 13:17:06;;;;;;;0.00;0.00;;;9.90;99.90;;;;;;4977840;28;20133;-82
2021/12/17 13:21:46;;;;;;;0.00;0.00;;;9.90;99.90;;;;;;4977869;28;20501;-81
2021/12/17 13:24:18;;;;;;;0.00;0.00;;;9.90;99.90;;;;;;4968548;28;20058;-81
2021/12/17 13:26:51;;;;;;;0.00;0.00;;;9.90;99.90;;;;;;4996460;28;20050;-81
2021/12/17 13:29:21;;;;;;;0.00;0.00;;;9.90;99.90;;;;;;4980761;28;20073;-81
2021/12/17 13:31:57;;;;;;;0.00;0.00;;;9.90;99.90;;;;;;4991928;28;20095;-82
2021/12/17 13:34:38;;;;;;;0.00;0.00;;;9.90;99.90;;;;;;4980992;28;20085;-82
2021/12/17 13:37:12;;;;;;;0.00;0.00;;;9.80;99.90;;;;;;4977285;28;20457;-82
2021/12/17 13:39:49;;;;;;;0.20;0.10;;;9.80;99.90;;;;;;4961683;28;20422;-81
2021/12/17 13:42:23;;;;;;;0.05;0.05;;;9.80;99.90;;;;;;4994282;28;20053;-81
2021/12/17 13:44:53;;;;;;;0.00;0.00;;;9.80;99.90;;;;;;5054141;28;20144;-81
2021/12/17 13:47:38;;;;;;;0.00;0.00;;;9.90;99.90;;;;;;5038266;28;20287;-82
2021/12/17 13:50:29;;;;;;;0.35;0.08;;;9.80;99.90;;;;;;5038437;28;20033;-81
2021/12/17 13:53:11;;;;;;;0.00;0.00;;;9.80;99.90;;;;;;5037777;28;20060;-81
2021/12/17 13:55:43;;;;;;;0.00;0.00;;;9.70;99.90;;;;;;5037293;28;20083;-81
2021/12/17 13:58:24;;;;;;;0.63;0.35;;;9.70;99.90;;;;;;5034664;28;20068;-82
2021/12/17 14:00:57;;;;;;;0.00;0.00;;;9.70;99.90;;;;;;5055534;28;20044;-81
2021/12/17 14:03:30;;;;;;;0.00;0.00;;;9.70;99.90;;;;;;5054789;28;20060;-81
2021/12/17 14:06:08;;;;;;;0.00;0.00;;;9.70;99.90;;;;;;5038353;28;20132;-83
2021/12/17 14:08:39;;;;;;;0.00;0.00;;;9.70;99.90;;;;;;5055120;28;20083;-81
2021/12/17 14:11:18;;;;;;;0.00;0.00;;;9.70;99.90;;;;;;5043292;28;20099;-81
2021/12/17 14:13:44;;;;;;;0.10;0.00;;;9.70;99.90;;;;;;5020990;28;20051;-81
2021/12/17 14:16:10;;;;;;;0.00;0.00;;;9.60;99.90;;;;;;5056063;28;20139;-81
2021/12/17 14:18:36;;;;;;;0.00;0.00;;;9.60;99.90;;;;;;5039747;28;20054;-81
2021/12/17 14:21:05;;;;;;;1.95;0.40;;;9.60;99.90;;;;;;5039062;28;20040;-81
2021/12/17 14:23:37;;;;;;;0.00;0.00;;;9.60;99.90;;;;;;5056022;28;20052;-81
2021/12/17 14:26:07;;;;;;;0.00;0.00;;;9.60;99.90;;;;;;5037527;28;20056;-80
2021/12/17 14:28:37;;;;;;;0.00;0.00;;;9.60;99.90;;;;;;5035846;28;20064;-80
2021/12/17 14:31:29;;;;;;;0.00;0.00;;;9.60;99.90;;;;;;5053106;28;20061;-81
2021/12/17 14:33:57;;;;;;;0.00;0.00;;;9.60;99.90;;;;;;5035669;28;20060;-82
2021/12/17 14:36:30;;;;;;;0.00;0.00;;;9.60;99.90;;;;;;5053005;28;20064;-83
2021/12/17 14:39:09;;;;;;;0.00;0.00;;;9.50;99.90;;;;;;5036542;28;20053;-81
2021/12/17 14:41:47;;;;;;;0.00;0.00;;;9.50;99.90;;;;;;5070193;28;20140;-81
2021/12/17 14:44:32;;;;;;;0.17;0.05;;;9.50;99.90;;;;;;5062341;28;20495;-82
2021/12/17 14:47:19;;;;;;;0.00;0.00;;;9.60;99.90;;;;;;5073898;28;20083;-81
2021/12/17 15:01:18;;;;;;;0.00;0.00;;;9.50;99.90;;;;;;5053819;28;20420;-82
2021/12/17 15:03:44;;;;;;;0.00;0.00;;;9.50;99.90;;;;;;5054992;28;20045;-82
2021/12/17 15:06:13;;;;;;;0.17;0.15;;;9.50;99.90;;;;;;5054908;28;20075;-82
2021/12/17 15:08:40;;;;;;;0.00;0.00;;;9.50;99.90;;;;;;5036309;28;20049;-82
2021/12/17 15:11:15;;;;;;;0.00;0.00;;;9.50;99.90;;;;;;5054244;28;20052;-82
2021/12/17 15:13:41;;;;;;;0.55;0.47;;;9.50;99.90;;;;;;5052880;28;20138;-81
2021/12/17 15:16:07;;;;;;;0.00;0.00;;;9.50;99.90;;;;;;5037433;28;20080;-82
2021/12/17 15:18:33;;;;;;;0.00;0.00;;;9.50;99.90;;;;;;5037071;28;20061;-81
2021/12/17 15:20:58;;;;;;;0.00;0.00;;;9.50;99.90;;;;;;5053139;28;20045;-81
2021/12/17 15:23:25;;;;;;;0.08;0.08;;;9.50;99.90;;;;;;5036192;28;20049;-82
2021/12/17 15:25:52;;;;;;;0.00;0.00;;;9.50;99.90;;;;;;5053156;28;20052;-82
2021/12/17 15:28:22;;;;;;;0.00;0.00;;;9.40;99.90;;;;;;5037285;28;20084;-81
2021/12/17 15:30:51;;;;;;;0.00;0.00;;;9.50;99.90;;;;;;5036752;28;20088;-81
2021/12/17 15:33:20;;;;;;;0.00;0.00;;;9.40;99.90;;;;;;5052806;28;20041;-81
2021/12/17 15:35:47;;;;;;;0.00;0.00;;;9.40;99.90;;;;;;5053047;28;20381;-82
2021/12/17 15:38:13;;;;;;;0.00;0.00;;;9.40;99.90;;;;;;5037216;28;20103;-82
2021/12/17 15:40:42;;;;;;;0.00;0.00;;;9.40;99.90;;;;;;5069635;28;20040;-82
2021/12/17 15:43:10;;;;;;;0.00;0.00;;;9.40;99.90;;;;;;5056155;28;20048;-81
2021/12/17 15:45:39;;;;;;;0.00;0.00;;;9.40;99.90;;;;;;5072526;28;20055;-82
2021/12/17 15:48:07;;;;;;;0.00;0.00;;;9.30;99.90;;;;;;5067274;28;20045;-82
2021/12/17 15:50:33;;;;;;;0.00;0.00;;;9.30;99.90;;;;;;5040302;28;20091;-81
2021/12/17 15:52:59;;;;;;;0.00;0.00;;;9.20;99.90;;;;;;5040362;28;20045;-82
2021/12/17 15:55:27;;;;;;;0.00;0.00;;;9.40;99.90;;;;;;5040036;28;20496;-82
2021/12/17 15:57:57;;;;;;;0.00;0.00;;;9.30;99.90;;;;;;5056932;28;20052;-83
2021/12/17 16:00:26;;;;;;;0.00;0.00;;;9.30;99.90;;;;;;5059815;28;20059;-82
2021/12/17 16:02:52;;;;;;;0.00;0.00;;;9.30;99.90;;;;;;5076191;28;20048;-82
2021/12/17 16:05:21;;;;;;;0.00;0.00;;;9.30;99.90;;;;;;5059747;28;20050;-81
2021/12/17 16:07:48;;;;;;;0.00;0.00;;;9.30;99.90;;;;;;5060091;28;20087;-82
2021/12/17 16:18:51;;;;;;;0.00;0.00;;;9.30;99.90;;;;;;5058588;28;20044;-81
2021/12/17 16:21:16;;;;;;;0.45;0.00;;;9.20;99.90;;;;;;5036939;28;20057;-85
2021/12/17 16:23:47;;;;;;;0.00;0.00;;;9.30;99.90;;;;;;5034140;28;20099;-84
2021/12/17 16:26:15;;;;;;;0.00;0.00;;;9.30;99.90;;;;;;5040257;28;20064;-85
2021/12/17 16:28:46;;;;;;;0.90;0.22;;;9.20;99.90;;;;;;5032107;28;20072;-85
2021/12/17 16:31:20;;;;;;;0.00;0.00;;;9.20;99.90;;;;;;5048198;28;20537;-84
2021/12/17 16:33:49;;;;;;;0.00;0.00;;;9.20;99.90;;;;;;5033331;28;20099;-85